KSLB/SLB METAR and TAF weather

Enter ICAO airport designator
Station Type Date Time Source
KSLB METAR 2020/01/24 03:15 UTC NOAA

KSLB 240315Z AUTO 03013KT 4SM BR OVC005 M01/M01 A2995 RMK AO2


Station Type Date Time Source
KSLB Decoded METAR 2020/01/24 03:15 UTC NOAA

Storm Lake, IA, United States (KSLB) 42-36N 095-14W
Jan 23, 2020 - 10:15 PM EST / 2020.01.24 0315 UTC
Wind: from the NNE (030 degrees) at 15 MPH (13 KT):0
Visibility: 4 mile(s):0
Sky conditions: overcast
Weather: mist
Temperature: 30 F (-1 C)
Windchill: 19 F (-7 C):1
Dew Point: 30 F (-1 C)
Relative Humidity: 100%
Pressure (altimeter): 29.95 in. Hg (1014 hPa)
ob: KSLB 240315Z AUTO 03013KT 4SM BR OVC005 M01/M01 A2995 RMK AO2
cycle: 3

Station Type Date Time Source
KSLB TAF UTC NOAA

Error!

Example: see airport list